Time;durP1;ratioP1;P1;durP2;ratioP2;P2;SDS_P1;SDS_P2;PMS_P1;PMS_P2;Temp;Humidity;BMP_temperature;BMP_pressure;BME280_temperature;BME280_humidity;BME280_pressure;Samples;Min_cycle;Max_cycle;Signal;HPM_P1;HPM_P2
2022/07/30 00:00:37;;;;;;;11.52;3.78;;;;;;;13.43;100.00;102021.22;5111596;27;20027;-78
2022/07/30 00:03:02;;;;;;;6.72;3.45;;;;;;;13.39;100.00;102023.31;5111480;28;20027;-78
2022/07/30 00:05:28;;;;;;;10.20;3.40;;;;;;;13.36;100.00;102025.38;5112153;28;20346;-78
2022/07/30 00:07:53;;;;;;;9.40;3.55;;;;;;;13.34;100.00;102032.69;5111676;28;20055;-78
2022/07/30 00:10:19;;;;;;;7.15;3.50;;;;;;;13.33;100.00;102023.81;5111541;28;20051;-78
2022/07/30 00:12:44;;;;;;;7.50;3.17;;;;;;;13.30;100.00;102021.38;5111988;28;20040;-78
2022/07/30 00:15:10;;;;;;;9.80;3.50;;;;;;;13.26;100.00;102019.94;5092740;28;20056;-78
2022/07/30 00:17:35;;;;;;;8.93;3.80;;;;;;;13.23;100.00;102017.53;5112540;28;20398;-78
2022/07/30 00:20:01;;;;;;;11.82;4.53;;;;;;;13.20;100.00;102017.78;5112817;28;20037;-78
2022/07/30 00:22:26;;;;;;;9.00;3.60;;;;;;;13.18;100.00;102023.25;5112728;28;20437;-79
2022/07/30 00:24:52;;;;;;;7.90;3.50;;;;;;;13.17;100.00;102010.03;5111855;28;20047;-78
2022/07/30 00:27:17;;;;;;;9.80;3.97;;;;;;;13.14;100.00;102011.13;5111986;28;20333;-77
2022/07/30 00:29:43;;;;;;;11.82;4.30;;;;;;;13.13;100.00;102013.91;5111357;28;20384;-78
2022/07/30 00:32:08;;;;;;;10.50;3.40;;;;;;;13.08;100.00;102003.63;5111697;28;20047;-78
2022/07/30 00:34:33;;;;;;;14.23;4.15;;;;;;;13.07;100.00;102012.59;5109810;28;20111;-78
2022/07/30 00:36:59;;;;;;;13.30;4.32;;;;;;;13.04;100.00;102002.16;5111484;28;20042;-78
2022/07/30 00:39:24;;;;;;;7.82;3.25;;;;;;;12.98;100.00;102003.50;5111835;28;20444;-78
2022/07/30 00:42:01;;;;;;;8.77;4.13;;;;;;;12.97;100.00;102007.19;5111333;28;20430;-77
2022/07/30 00:44:27;;;;;;;9.23;3.60;;;;;;;12.96;100.00;101997.47;5111622;28;20028;-77
2022/07/30 00:46:53;;;;;;;12.13;3.65;;;;;;;12.97;100.00;102000.97;5110710;27;20036;-77
2022/07/30 00:49:19;;;;;;;7.40;3.47;;;;;;;12.99;100.00;101999.88;5111352;28;20034;-77
2022/07/30 00:51:45;;;;;;;6.70;3.70;;;;;;;12.99;100.00;102001.72;5110950;28;20028;-78
2022/07/30 00:54:11;;;;;;;7.63;4.15;;;;;;;12.97;100.00;101998.31;5110995;28;20057;-78
2022/07/30 00:56:36;;;;;;;10.68;3.70;;;;;;;12.95;100.00;102006.44;5111097;28;20080;-78
2022/07/30 00:59:02;;;;;;;11.40;3.95;;;;;;;12.91;100.00;101994.31;5110441;28;20045;-78
2022/07/30 01:01:27;;;;;;;7.25;3.50;;;;;;;12.87;100.00;102001.72;5110963;28;20365;-77
2022/07/30 01:03:52;;;;;;;11.88;3.88;;;;;;;12.84;100.00;101998.47;5110420;28;20039;-76
2022/07/30 01:06:18;;;;;;;10.10;3.45;;;;;;;12.83;100.00;102002.94;5110596;28;20034;-77
2022/07/30 01:08:43;;;;;;;12.55;3.72;;;;;;;12.80;100.00;102002.38;5110918;28;20450;-77
2022/07/30 01:11:10;;;;;;;12.38;3.25;;;;;;;12.74;100.00;101994.84;5110420;28;20028;-77
2022/07/30 01:13:35;;;;;;;4.63;3.00;;;;;;;12.69;100.00;101995.25;5108825;28;20483;-77
2022/07/30 01:16:00;;;;;;;5.32;3.08;;;;;;;12.65;100.00;101988.44;5108934;28;20051;-77
2022/07/30 01:19:47;;;;;;;8.02;3.50;;;;;;;12.62;100.00;101986.88;5110503;28;20080;-78
2022/07/30 01:21:19;;;;;;;6.35;3.65;;;;;;;12.60;100.00;101988.81;5110295;28;20126;-77
2022/07/30 01:23:47;;;;;;;6.82;3.47;;;;;;;12.55;100.00;101993.66;5109321;28;20031;-77
2022/07/30 01:26:16;;;;;;;9.95;3.17;;;;;;;12.50;100.00;101988.69;5110361;28;20164;-77
2022/07/30 01:28:47;;;;;;;5.68;3.20;;;;;;;12.50;100.00;101993.19;5110865;28;20066;-77
2022/07/30 01:31:14;;;;;;;6.65;3.50;;;;;;;12.47;100.00;101990.78;5110191;28;20024;-78
2022/07/30 01:33:43;;;;;;;9.27;3.88;;;;;;;12.46;100.00;101994.41;5108749;28;20213;-77
2022/07/30 01:36:13;;;;;;;7.10;3.47;;;;;;;12.47;100.00;101990.78;5110312;28;20028;-78
2022/07/30 01:38:40;;;;;;;6.68;3.53;;;;;;;12.45;100.00;101987.38;5110227;28;20464;-78
2022/07/30 01:41:07;;;;;;;5.10;3.13;;;;;;;12.39;100.00;101986.06;5112246;28;20169;-78
2022/07/30 01:43:34;;;;;;;9.38;4.05;;;;;;;12.40;100.00;101986.91;5114369;28;20087;-77
2022/07/30 01:46:02;;;;;;;10.20;3.97;;;;;;;12.43;100.00;101997.31;5114062;28;20028;-78
2022/07/30 01:48:30;;;;;;;5.97;3.65;;;;;;;12.44;100.00;101996.38;5114805;28;20046;-77
2022/07/30 01:50:59;;;;;;;9.02;3.92;;;;;;;12.48;100.00;101989.78;5114474;28;20035;-77
2022/07/30 01:53:27;;;;;;;5.93;3.55;;;;;;;12.47;100.00;101985.44;5113869;28;20031;-77
2022/07/30 01:55:54;;;;;;;6.82;3.92;;;;;;;12.43;100.00;101987.50;5113635;28;20125;-78
2022/07/30 01:58:23;;;;;;;6.88;3.83;;;;;;;12.45;100.00;101990.91;5116052;28;20079;-78
2022/07/30 02:00:50;;;;;;;8.95;4.30;;;;;;;12.47;100.00;101990.78;5113238;28;20028;-77
2022/07/30 02:03:15;;;;;;;11.07;4.15;;;;;;;12.47;100.00;101991.63;5113667;28;20429;-77
2022/07/30 02:05:48;;;;;;;7.78;3.88;;;;;;;12.48;100.00;101992.44;5113815;27;20047;-77
2022/07/30 02:08:20;;;;;;;10.38;3.90;;;;;;;12.49;100.00;101994.16;5113911;27;20024;-76
2022/07/30 02:11:07;;;;;;;7.50;3.50;;;;;;;12.47;100.00;101993.44;5112602;28;20084;-76
2022/07/30 02:14:02;;;;;;;9.45;3.83;;;;;;;12.47;100.00;101996.13;5113580;28;20057;-76
2022/07/30 02:16:35;;;;;;;11.07;4.13;;;;;;;12.44;100.00;102007.03;5110518;28;20073;-75
2022/07/30 02:19:09;;;;;;;10.68;3.78;;;;;;;12.41;100.00;102001.94;5113634;28;20508;-77
2022/07/30 02:21:38;;;;;;;6.25;4.10;;;;;;;12.38;100.00;102002.19;5113551;28;20035;-76
2022/07/30 02:24:11;;;;;;;6.80;4.30;;;;;;;12.37;100.00;102001.34;5113739;28;20077;-76
2022/07/30 02:26:38;;;;;;;15.07;4.60;;;;;;;12.33;100.00;102000.75;5113756;28;20103;-76
2022/07/30 02:29:05;;;;;;;7.15;3.60;;;;;;;12.31;100.00;101999.16;5113063;28;20043;-76
2022/07/30 02:31:32;;;;;;;7.97;3.50;;;;;;;12.27;100.00;102005.69;5111773;28;20129;-77
2022/07/30 02:34:01;;;;;;;4.80;3.20;;;;;;;12.24;100.00;102003.28;5113385;28;20043;-76
2022/07/30 02:36:28;;;;;;;6.22;3.03;;;;;;;12.20;100.00;101996.50;5113381;27;20537;-77
2022/07/30 02:38:55;;;;;;;8.30;3.40;;;;;;;12.18;100.00;101999.25;5113291;28;20038;-76
2022/07/30 02:41:23;;;;;;;6.45;3.30;;;;;;;12.14;100.00;101992.50;5111828;28;20360;-76
2022/07/30 02:43:51;;;;;;;7.95;3.70;;;;;;;12.12;100.00;101997.09;5113313;28;20024;-77
2022/07/30 02:46:17;;;;;;;11.88;3.42;;;;;;;12.10;100.00;101988.38;5112952;28;20031;-77
2022/07/30 02:48:45;;;;;;;6.03;3.08;;;;;;;12.10;100.00;101999.03;5110980;28;20043;-77
2022/07/30 02:51:15;;;;;;;4.13;3.30;;;;;;;12.08;100.00;101985.81;5112772;28;20038;-76
2022/07/30 02:53:44;;;;;;;5.25;3.45;;;;;;;12.09;100.00;101989.31;5112174;28;20073;-76
2022/07/30 02:56:11;;;;;;;7.60;3.90;;;;;;;12.07;100.00;101989.44;5111188;28;20019;-76
2022/07/30 02:58:37;;;;;;;6.78;3.72;;;;;;;12.06;100.00;101994.91;5112928;28;20463;-76
2022/07/30 03:01:04;;;;;;;6.65;4.18;;;;;;;12.06;100.00;101985.09;5112587;27;20076;-78
2022/07/30 03:03:30;;;;;;;4.15;3.50;;;;;;;12.09;100.00;101992.00;5112746;28;20073;-75
2022/07/30 03:05:58;;;;;;;4.80;3.47;;;;;;;12.09;100.00;101992.00;5112390;28;20417;-76
2022/07/30 03:08:25;;;;;;;5.07;3.47;;;;;;;12.06;100.00;101995.78;5112377;28;20076;-77
2022/07/30 03:10:54;;;;;;;5.53;3.85;;;;;;;12.09;100.00;101994.66;5112572;28;20031;-77
2022/07/30 03:13:21;;;;;;;4.72;3.55;;;;;;;12.09;100.00;101987.53;5112409;28;20023;-77
2022/07/30 03:15:49;;;;;;;7.88;4.07;;;;;;;12.11;100.00;101990.06;5112663;28;20429;-76
2022/07/30 03:18:17;;;;;;;8.15;4.07;;;;;;;12.14;100.00;102003.16;5112160;28;20455;-77
2022/07/30 03:20:49;;;;;;;10.55;5.28;;;;;;;12.17;100.00;102000.25;5110733;28;20039;-76
2022/07/30 03:23:16;;;;;;;;;;;;;;;12.20;100.00;102000.00;5112873;28;20035;-77
2022/07/30 03:25:47;;;;;;;8.20;4.10;;;;;;;12.20;100.00;102001.84;5112239;28;19922;-76
2022/07/30 03:28:14;;;;;;;;;;;;;;;12.18;100.00;101993.94;5111043;28;20096;-77
2022/07/30 03:30:40;;;;;;;8.07;4.22;;;;;;;12.19;100.00;101994.81;5110749;28;19912;-77
2022/07/30 03:33:05;;;;;;;11.95;4.97;;;;;;;12.21;100.00;102001.72;5112569;27;20042;-77
2022/07/30 03:35:31;;;;;;;6.57;4.15;;;;;;;12.23;100.00;101999.78;5113373;27;20043;-76
2022/07/30 03:37:58;;;;;;;8.20;3.65;;;;;;;12.23;100.00;102002.44;5112113;28;20468;-77
2022/07/30 03:40:24;;;;;;;9.38;4.30;;;;;;;12.23;100.00;101994.44;5110211;28;20524;-75
2022/07/30 03:42:49;;;;;;;11.98;4.50;;;;;;;12.26;100.00;101994.19;5112522;28;20167;-76
2022/07/30 03:45:17;;;;;;;7.93;3.70;;;;;;;12.27;100.00;101993.22;5110254;28;20110;-76
2022/07/30 03:47:44;;;;;;;9.80;5.43;;;;;;;12.32;100.00;102000.88;5111770;28;20028;-77
2022/07/30 03:50:11;;;;;;;8.80;4.00;;;;;;;12.33;100.00;101997.19;5111648;28;20099;-77
2022/07/30 03:52:39;;;;;;;7.30;4.00;;;;;;;12.33;100.00;101994.53;5111575;28;20119;-76
2022/07/30 03:55:06;;;;;;;6.20;3.25;;;;;;;12.33;100.00;101999.88;5111601;28;20178;-76
2022/07/30 03:57:32;;;;;;;6.60;3.80;;;;;;;12.32;100.00;101999.03;5111560;27;20445;-76
2022/07/30 03:59:57;;;;;;;7.10;3.25;;;;;;;12.33;100.00;101999.88;5111544;28;20441;-76
2022/07/30 04:02:23;;;;;;;7.65;3.55;;;;;;;12.33;100.00;102000.75;5111885;28;20092;-77
2022/07/30 04:04:48;;;;;;;8.32;3.85;;;;;;;12.35;100.00;102011.28;5110579;28;20143;-76
2022/07/30 04:07:14;;;;;;;6.30;4.00;;;;;;;12.35;100.00;102003.28;5111084;28;20043;-76
2022/07/30 04:09:39;;;;;;;6.95;3.45;;;;;;;12.39;100.00;102006.53;5111845;28;20035;-76
2022/07/30 04:12:05;;;;;;;9.45;4.05;;;;;;;12.43;100.00;102008.84;5111111;28;20027;-75
2022/07/30 04:14:41;;;;;;;11.15;4.28;;;;;;;12.49;100.00;102015.53;5111194;28;20062;-76
2022/07/30 04:17:13;;;;;;;6.00;3.58;;;;;;;12.55;100.00;102016.84;5111243;28;20036;-75
2022/07/30 04:19:44;;;;;;;13.43;4.00;;;;;;;12.62;100.00;102018.06;5111164;28;20028;-75
2022/07/30 04:22:12;;;;;;;7.25;4.18;;;;;;;12.69;100.00;102013.94;5111317;28;20084;-75
2022/07/30 04:24:39;;;;;;;6.88;3.17;;;;;;;12.76;100.00;102017.78;5110943;28;20027;-76
2022/07/30 04:27:05;;;;;;;10.13;3.55;;;;;;;12.83;100.00;102018.13;5110864;28;20096;-76
2022/07/30 04:29:30;;;;;;;9.40;3.63;;;;;;;12.87;100.00;102014.25;5110937;27;20035;-76
2022/07/30 04:31:56;;;;;;;10.30;3.35;;;;;;;12.89;100.00;102017.63;5110938;28;20028;-76
2022/07/30 04:34:22;;;;;;;10.25;3.33;;;;;;;12.90;100.00;102013.13;5110509;28;20031;-76
2022/07/30 04:36:47;;;;;;;5.72;2.92;;;;;;;12.94;100.00;102017.25;5092440;28;20036;-76
2022/07/30 04:39:13;;;;;;;5.80;2.90;;;;;;;12.96;100.00;102009.97;5110569;28;20040;-75
2022/07/30 04:41:38;;;;;;;5.78;2.70;;;;;;;13.01;100.00;102024.63;5110489;28;20047;-75
2022/07/30 04:44:04;;;;;;;9.60;3.00;;;;;;;13.07;100.00;102025.97;5109069;28;20068;-76
2022/07/30 04:46:30;;;;;;;8.40;2.95;;;;;;;13.10;100.00;102030.22;5110409;28;20172;-77
2022/07/30 04:48:55;;;;;;;9.05;3.10;;;;;;;13.11;100.00;102021.22;5109286;28;20364;-76
2022/07/30 04:51:27;;;;;;;8.10;4.18;;;;;;;13.12;100.00;102022.91;5110839;28;20032;-76
2022/07/30 04:53:54;;;;;;;8.13;3.10;;;;;;;13.12;100.00;102022.91;5109405;28;20089;-76
2022/07/30 04:56:20;;;;;;;6.85;2.80;;;;;;;13.12;100.00;102025.56;5110584;28;20132;-78
2022/07/30 04:58:47;;;;;;;4.88;2.60;;;;;;;13.15;100.00;102028.84;5110362;28;20433;-77
2022/07/30 05:01:17;;;;;;;8.98;2.60;;;;;;;13.20;100.00;102028.47;5110623;28;20038;-77
2022/07/30 05:03:45;;;;;;;5.73;2.50;;;;;;;13.20;100.00;102031.16;5112115;28;20031;-78
2022/07/30 05:06:11;;;;;;;5.10;2.40;;;;;;;13.19;100.00;102024.94;5113954;28;20088;-75
2022/07/30 05:08:37;;;;;;;8.10;2.88;;;;;;;13.19;100.00;102027.59;5112291;28;20445;-75
2022/07/30 05:11:03;;;;;;;3.65;2.35;;;;;;;13.20;100.00;102028.47;5112704;28;20042;-76
2022/07/30 05:13:28;;;;;;;5.43;2.25;;;;;;;13.21;100.00;102030.16;5111799;28;20163;-75
2022/07/30 05:15:54;;;;;;;5.45;2.40;;;;;;;13.22;100.00;102035.38;5109711;28;20376;-76
2022/07/30 05:18:19;;;;;;;6.03;2.60;;;;;;;13.25;100.00;102039.63;5110295;28;20441;-76
2022/07/30 05:20:45;;;;;;;6.22;2.40;;;;;;;13.31;100.00;102040.94;5110553;28;20106;-77
2022/07/30 05:23:10;;;;;;;3.65;2.67;;;;;;;13.38;100.00;102043.00;5110530;28;20164;-77
2022/07/30 05:25:36;;;;;;;5.93;2.17;;;;;;;13.44;100.00;102049.66;5110186;28;20088;-76
2022/07/30 05:28:01;;;;;;;3.40;2.20;;;;;;;13.51;100.00;102050.84;5110216;28;20480;-77
2022/07/30 05:30:26;;;;;;;6.10;2.35;;;;;;;13.57;100.00;102049.50;5110055;28;20421;-77
2022/07/30 05:32:52;;;;;;;4.20;2.25;;;;;;;13.62;100.00;102052.63;5108616;28;20031;-77
2022/07/30 05:35:17;;;;;;;5.18;2.40;;;;;;;13.68;100.00;102060.13;5110003;28;20430;-76
2022/07/30 05:37:43;;;;;;;3.05;2.00;;;;;;;13.71;100.00;102057.19;5110162;28;20028;-77
2022/07/30 05:40:09;;;;;;;7.75;2.13;;;;;;;13.75;100.00;102053.28;5110005;28;20383;-77
2022/07/30 05:42:34;;;;;;;3.35;1.92;;;;;;;13.82;100.00;102058.09;5091585;28;20132;-76
2022/07/30 05:44:59;;;;;;;8.50;2.20;;;;;;;13.86;100.00;102060.38;5110251;28;20069;-76
2022/07/30 05:47:25;;;;;;;4.63;1.83;;;;;;;13.94;100.00;102062.38;5110070;28;20214;-78
2022/07/30 05:49:51;;;;;;;7.63;2.13;;;;;;;14.03;100.00;102066.97;5110338;28;20089;-77
2022/07/30 05:52:16;;;;;;;5.20;2.28;;;;;;;14.09;100.00;102060.22;5110077;28;20027;-76
2022/07/30 05:54:42;;;;;;;5.72;2.30;;;;;;;14.16;100.00;102061.41;5109752;28;20040;-77
2022/07/30 05:57:07;;;;;;;5.50;2.10;;;;;;;14.26;100.00;102058.78;5109835;28;20483;-76
2022/07/30 05:59:33;;;;;;;8.52;2.15;;;;;;;14.38;100.00;102059.53;5109902;28;20066;-77
2022/07/30 06:02:00;;;;;;;4.30;2.00;;;;;;;14.50;100.00;102060.28;5109989;28;20113;-75
2022/07/30 06:04:26;;;;;;;6.65;1.95;;;;;;;14.60;100.00;102070.06;5109899;28;20035;-76
2022/07/30 06:06:51;;;;;;;7.57;2.28;;;;;;;14.72;100.00;102072.66;5109856;28;20036;-75
2022/07/30 06:09:17;;;;;;;6.07;2.10;;;;;;;14.83;100.00;102066.34;5110046;28;20028;-76
2022/07/30 06:11:42;;;;;;;8.00;2.13;;;;;;;14.95;100.00;102060.72;5110208;28;20130;-76
2022/07/30 06:14:07;;;;;;;3.50;2.03;;;;;;;15.12;100.00;102066.38;5109587;28;20032;-76
2022/07/30 06:16:33;;;;;;;4.68;2.10;;;;;;;15.25;100.00;102064.28;5108329;28;20480;-78
2022/07/30 06:18:58;;;;;;;7.65;2.00;;;;;;;15.40;100.00;102062.03;5108378;28;20493;-78
2022/07/30 06:21:23;;;;;;;4.82;1.70;;;;;;;15.60;100.00;102062.03;5110033;28;20139;-76
2022/07/30 06:23:48;;;;;;;5.15;1.60;;;;;;;15.74;100.00;102061.59;5109537;28;20088;-77
2022/07/30 06:26:14;;;;;;;4.40;1.45;;;;;;;15.90;98.79;102065.53;5108296;28;20096;-76
2022/07/30 06:28:39;;;;;;;2.78;1.30;;;;;;;16.03;97.47;102066.09;5112675;28;20038;-77
2022/07/30 06:31:06;;;;;;;4.38;1.60;;;;;;;16.16;96.10;102061.25;5111618;28;20036;-77
2022/07/30 06:33:31;;;;;;;4.03;2.13;;;;;;;16.30;94.13;102064.44;5111512;28;20023;-78
2022/07/30 06:35:57;;;;;;;3.05;1.83;;;;;;;16.42;93.67;102060.59;5113296;28;20028;-75
2022/07/30 06:38:22;;;;;;;3.95;1.60;;;;;;;16.51;91.80;102053.47;5113087;28;20457;-77
2022/07/30 06:40:47;;;;;;;5.72;1.80;;;;;;;16.64;91.44;102058.50;5113361;28;20393;-77
2022/07/30 06:43:13;;;;;;;6.60;1.63;;;;;;;16.78;89.86;102055.34;5113617;28;20156;-78
2022/07/30 06:45:38;;;;;;;4.57;1.70;;;;;;;16.87;88.33;102059.84;5112990;28;20034;-78
2022/07/30 06:48:04;;;;;;;3.47;1.50;;;;;;;17.02;89.50;102057.47;5112857;28;20057;-77
2022/07/30 06:50:29;;;;;;;4.18;1.50;;;;;;;17.17;87.41;102065.84;5113426;28;20107;-77
2022/07/30 06:52:55;;;;;;;3.15;1.50;;;;;;;17.29;85.27;102061.09;5113186;28;20448;-80
2022/07/30 06:55:20;;;;;;;4.32;1.55;;;;;;;17.41;83.84;102064.41;5113291;28;20093;-79
2022/07/30 06:57:45;;;;;;;6.30;2.03;;;;;;;17.49;81.71;102064.47;5111820;28;20019;-77
2022/07/30 07:00:11;;;;;;;2.15;1.50;;;;;;;17.58;82.08;102066.22;5113076;28;20118;-76
2022/07/30 07:02:38;;;;;;;2.40;1.20;;;;;;;17.67;81.21;102064.44;5112896;28;20403;-77
2022/07/30 07:05:04;;;;;;;4.53;1.42;;;;;;;17.77;80.31;102065.19;5111060;28;20070;-77
2022/07/30 07:07:29;;;;;;;3.58;1.50;;;;;;;17.90;80.61;102070.22;5112777;28;20043;-68
2022/07/30 07:09:54;;;;;;;2.72;1.30;;;;;;;17.98;78.47;102061.34;5112595;28;20380;-70
2022/07/30 07:12:19;;;;;;;3.53;1.60;;;;;;;18.08;79.86;102069.31;5112475;28;20329;-72
2022/07/30 07:14:45;;;;;;;1.88;1.40;;;;;;;18.16;76.95;102072.03;5110592;28;20158;-72
2022/07/30 07:17:11;;;;;;;4.68;1.55;;;;;;;18.15;77.43;102071.22;5112595;28;20065;-72
2022/07/30 07:19:37;;;;;;;5.55;1.60;;;;;;;18.26;77.81;102066.56;5112210;28;20032;-72
2022/07/30 07:22:02;;;;;;;4.75;1.48;;;;;;;18.37;74.77;102079.75;5112547;28;20027;-70
2022/07/30 07:24:28;;;;;;;1.98;1.10;;;;;;;18.41;74.92;102073.03;5112456;28;20111;-71
2022/07/30 07:26:53;;;;;;;3.88;1.45;;;;;;;18.41;75.17;102078.41;5112299;28;20179;-72
2022/07/30 07:29:18;;;;;;;3.67;1.40;;;;;;;18.49;75.37;102083.84;5112410;28;20032;-70
2022/07/30 07:31:44;;;;;;;4.22;1.60;;;;;;;18.57;73.99;102091.13;5112426;28;20330;-70
2022/07/30 07:34:09;;;;;;;5.95;1.52;;;;;;;18.63;73.68;102078.84;5112205;28;20024;-69
2022/07/30 07:36:35;;;;;;;6.00;1.75;;;;;;;18.79;72.83;102075.38;5112093;28;20050;-70
2022/07/30 07:39:00;;;;;;;2.67;1.45;;;;;;;18.85;70.91;102075.59;5111837;28;20107;-70
2022/07/30 07:41:26;;;;;;;2.78;1.30;;;;;;;18.97;72.07;102083.38;5112202;28;20039;-71
2022/07/30 07:43:51;;;;;;;3.22;1.42;;;;;;;19.15;72.09;102076.00;5112129;28;20391;-71
2022/07/30 07:46:16;;;;;;;4.43;2.13;;;;;;;19.31;68.79;102082.44;5111834;28;20024;-71
2022/07/30 07:48:45;;;;;;;2.72;1.38;;;;;;;19.42;67.74;102074.00;5111733;28;20459;-72
2022/07/30 07:51:10;;;;;;;4.70;1.42;;;;;;;19.51;64.60;102072.16;5111586;28;20400;-70
2022/07/30 07:53:36;;;;;;;2.75;1.20;;;;;;;19.64;64.75;102077.88;5111776;27;20027;-70
2022/07/30 07:56:02;;;;;;;3.63;1.10;;;;;;;19.74;65.65;102078.56;5111602;28;20115;-70
2022/07/30 07:58:27;;;;;;;3.50;1.15;;;;;;;19.84;63.96;102075.72;5111673;28;20093;-70
2022/07/30 08:00:53;;;;;;;3.55;1.33;;;;;;;19.92;64.22;102077.56;5111729;28;20412;-70
2022/07/30 08:03:19;;;;;;;3.35;1.38;;;;;;;20.00;64.66;102076.72;5111646;27;20031;-69
2022/07/30 08:05:45;;;;;;;2.00;1.13;;;;;;;20.14;62.64;102077.84;5111690;28;20115;-71
2022/07/30 08:08:11;;;;;;;4.18;1.20;;;;;;;20.23;62.03;102077.69;5111755;28;20028;-70
2022/07/30 08:10:36;;;;;;;4.65;1.30;;;;;;;20.23;62.70;102077.69;5111287;27;20097;-71
2022/07/30 08:13:02;;;;;;;1.67;1.17;;;;;;;20.35;62.37;102075.44;5110383;28;20031;-76
2022/07/30 08:15:28;;;;;;;2.70;1.30;;;;;;;20.47;60.82;102065.09;5109604;28;20062;-72
2022/07/30 08:17:53;;;;;;;3.65;1.25;;;;;;;20.59;61.63;102062.84;5111808;28;20357;-71
2022/07/30 08:20:21;;;;;;;6.25;1.45;;;;;;;20.68;56.56;102069.94;5111774;27;20418;-76
2022/07/30 08:22:46;;;;;;;4.47;1.40;;;;;;;20.80;56.40;102064.97;5111592;28;20027;-73
2022/07/30 08:25:12;;;;;;;3.17;1.20;;;;;;;20.97;57.87;102063.00;5111666;28;20039;-72
2022/07/30 08:27:37;;;;;;;2.70;1.30;;;;;;;21.26;58.11;102061.50;5110413;28;20058;-73
2022/07/30 08:30:07;;;;;;;1.10;1.00;;;;;;;21.62;57.36;102061.72;5111233;28;20110;-73
2022/07/30 08:32:33;;;;;;;1.83;1.10;;;;;;;21.92;55.24;102059.06;5111814;28;20089;-74
2022/07/30 08:34:58;;;;;;;2.78;1.23;;;;;;;22.13;53.25;102062.94;5111556;28;20376;-74
2022/07/30 08:37:24;;;;;;;8.43;1.58;;;;;;;22.49;53.87;102063.03;5111404;28;20039;-71
2022/07/30 08:39:49;;;;;;;10.45;1.50;;;;;;;22.79;52.83;102070.28;5111675;27;20078;-75
2022/07/30 08:42:15;;;;;;;5.40;1.40;;;;;;;23.12;51.54;102067.13;5093227;28;20142;-74
2022/07/30 08:44:45;;;;;;;3.55;1.30;;;;;;;23.54;50.08;102065.44;5111378;28;20036;-75
2022/07/30 08:47:15;;;;;;;2.47;1.20;;;;;;;23.89;50.61;102065.53;5112006;28;20099;-73
2022/07/30 08:49:40;;;;;;;9.25;1.60;;;;;;;24.26;48.25;102067.03;5110892;28;20035;-73
2022/07/30 08:52:07;;;;;;;3.55;1.20;;;;;;;24.67;46.64;102075.41;5111144;28;20395;-74
2022/07/30 08:54:34;;;;;;;2.65;1.30;;;;;;;24.88;46.27;102074.44;5111113;28;20031;-73
2022/07/30 08:57:00;;;;;;;6.95;1.50;;;;;;;25.29;46.33;102077.03;5110938;28;20123;-71
2022/07/30 08:59:26;;;;;;;4.47;1.50;;;;;;;25.58;44.63;102069.53;5111460;28;20112;-72
2022/07/30 09:01:51;;;;;;;7.20;1.38;;;;;;;25.79;42.23;102076.66;5075714;28;20434;-73
2022/07/30 09:04:17;;;;;;;1.83;1.20;;;;;;;25.94;41.45;102068.25;5110856;28;20107;-73
2022/07/30 09:06:43;;;;;;;5.40;1.20;;;;;;;26.08;41.42;102074.56;5110964;28;20028;-73
2022/07/30 09:09:08;;;;;;;4.05;1.38;;;;;;;26.39;41.04;102073.84;5111163;28;20143;-71
2022/07/30 09:11:37;;;;;;;2.75;1.30;;;;;;;26.65;38.45;102080.25;5110688;28;20096;-74
2022/07/30 09:14:13;;;;;;;2.85;1.25;;;;;;;27.17;36.88;102085.66;5110692;28;20053;-72
2022/07/30 09:16:39;;;;;;;3.20;1.33;;;;;;;27.74;35.12;102082.94;5110637;28;20093;-72
2022/07/30 09:19:20;;;;;;;5.43;1.20;;;;;;;28.30;34.81;102083.84;5110433;28;20043;-73
2022/07/30 09:22:00;;;;;;;5.00;1.70;;;;;;;29.10;33.89;102076.53;5110459;28;20036;-72
2022/07/30 09:24:26;;;;;;;5.97;1.13;;;;;;;29.60;32.08;102077.25;5110952;28;20042;-72
2022/07/30 09:26:58;;;;;;;4.82;1.58;;;;;;;30.31;31.59;102066.25;5110905;28;20119;-74
2022/07/30 09:29:28;;;;;;;2.08;1.15;;;;;;;30.72;30.76;102070.69;5110350;28;20039;-73
2022/07/30 09:32:03;;;;;;;3.97;1.48;;;;;;;30.84;31.32;102070.63;5110840;28;20051;-73
2022/07/30 09:34:34;;;;;;;1.95;1.10;;;;;;;30.88;31.13;102060.81;5111083;28;20076;-73
2022/07/30 09:37:01;;;;;;;4.57;1.50;;;;;;;31.13;30.19;102059.66;5111733;28;20126;-73
2022/07/30 09:39:40;;;;;;;3.45;1.30;;;;;;;31.35;28.64;102068.00;5110307;28;20452;-73
2022/07/30 09:42:19;;;;;;;4.13;1.50;;;;;;;30.75;29.99;102058.34;5110126;28;20069;-76
2022/07/30 09:44:44;;;;;;;3.22;1.40;;;;;;;30.91;28.96;102056.75;5110304;28;20111;-71
2022/07/30 09:47:35;;;;;;;3.40;1.30;;;;;;;30.66;31.19;102052.41;5110283;28;20225;-71
2022/07/30 09:50:12;;;;;;;1.48;1.17;;;;;;;31.11;29.55;102053.53;5110111;28;20103;-74
2022/07/30 09:52:40;;;;;;;6.32;1.45;;;;;;;31.78;29.67;102050.00;5110311;28;20333;-72
2022/07/30 09:55:06;;;;;;;5.20;1.40;;;;;;;32.05;29.05;102056.66;5109982;28;20023;-73
2022/07/30 09:57:32;;;;;;;6.72;1.70;;;;;;;32.19;27.88;102048.88;5110574;28;20035;-73
2022/07/30 10:00:15;;;;;;;2.83;1.20;;;;;;;31.95;28.28;102055.44;5110254;28;20410;-71
2022/07/30 10:02:41;;;;;;;3.22;1.42;;;;;;;32.41;26.88;102055.22;5112003;28;20080;-72
2022/07/30 10:05:11;;;;;;;2.45;1.33;;;;;;;32.55;27.26;102052.09;5095484;28;20043;-73
2022/07/30 10:07:37;;;;;;;5.57;1.38;;;;;;;32.00;27.87;102054.66;5114306;28;20028;-73
2022/07/30 10:10:03;;;;;;;4.28;1.58;;;;;;;31.79;27.94;102053.56;5113787;28;20032;-74
2022/07/30 10:12:31;;;;;;;7.38;2.13;;;;;;;32.01;28.58;102061.84;5113798;28;20155;-73
2022/07/30 10:15:00;;;;;;;15.45;1.58;;;;;;;31.85;28.48;102062.72;5113659;28;20051;-74
2022/07/30 10:17:26;;;;;;;4.32;1.30;;;;;;;30.90;29.99;102068.81;5113811;28;20088;-72
2022/07/30 10:19:53;;;;;;;51.70;46.00;;;;;;;30.60;30.22;102072.63;5113611;27;20123;-73
2022/07/30 10:22:18;;;;;;;4.15;1.23;;;;;;;30.04;31.34;102067.59;5112003;28;20032;-74
2022/07/30 10:24:44;;;;;;;2.17;0.95;;;;;;;29.76;31.04;102065.56;5114022;28;20099;-75
2022/07/30 10:27:10;;;;;;;2.53;1.20;;;;;;;29.20;30.67;102070.47;5113656;28;20030;-72
2022/07/30 10:29:37;;;;;;;3.45;1.30;;;;;;;28.43;33.32;102068.34;5095488;28;20426;-73
2022/07/30 10:32:03;;;;;;;5.55;1.60;;;;;;;27.99;34.66;102073.06;5113538;28;20051;-72
2022/07/30 10:34:29;;;;;;;6.03;1.50;;;;;;;27.70;35.67;102076.22;5113353;28;20043;-72
2022/07/30 10:36:58;;;;;;;2.28;1.30;;;;;;;27.44;35.04;102066.38;5113872;28;20107;-71
2022/07/30 10:39:28;;;;;;;3.45;1.25;;;;;;;27.19;36.19;102067.16;5113494;28;20076;-74
2022/07/30 10:42:18;;;;;;;3.00;1.37;;;;;;;27.07;36.86;102067.00;5113278;28;20019;-72
2022/07/30 10:44:59;;;;;;;4.82;1.50;;;;;;;27.04;36.81;102064.72;5113520;27;20093;-71
2022/07/30 10:47:26;;;;;;;4.47;1.42;;;;;;;26.83;37.31;102063.19;5113181;28;20031;-72
2022/07/30 10:50:08;;;;;;;3.67;1.30;;;;;;;27.17;35.49;102060.22;5112938;28;20413;-72
2022/07/30 10:52:49;;;;;;;3.75;1.30;;;;;;;27.79;35.37;102058.47;5113202;28;20126;-72
2022/07/30 10:55:16;;;;;;;8.65;1.70;;;;;;;27.91;35.05;102063.22;5111785;28;20031;-72
2022/07/30 10:58:08;;;;;;;2.72;1.40;;;;;;;27.80;35.05;102060.16;5113299;28;20027;-73
2022/07/30 11:00:53;;;;;;;8.52;1.30;;;;;;;27.06;34.40;102068.06;5113764;28;20028;-72
2022/07/30 11:03:22;;;;;;;3.80;1.52;;;;;;;26.56;35.65;102063.28;5102011;28;20478;-72
2022/07/30 11:05:50;;;;;;;6.28;1.77;;;;;;;26.07;37.77;102064.69;5113303;28;20035;-73
2022/07/30 11:08:36;;;;;;;8.70;1.65;;;;;;;25.62;38.70;102065.34;5113477;28;20119;-70
2022/07/30 11:11:22;;;;;;;2.38;1.02;;;;;;;25.47;39.25;102067.44;5113308;28;20055;-73
2022/07/30 11:14:00;;;;;;;6.30;1.13;;;;;;;25.16;39.81;102064.22;5112309;28;20031;-72
2022/07/30 11:16:31;;;;;;;4.00;1.20;;;;;;;24.80;40.00;102059.97;5113060;27;20044;-73
2022/07/30 11:19:26;;;;;;;9.43;1.65;;;;;;;24.42;42.28;102059.56;5113055;28;20050;-72
2022/07/30 11:22:27;;;;;;;3.08;1.25;;;;;;;24.50;40.70;102062.13;5111424;28;20067;-76